sensor_id;sensor_type;location;lat;lon;timestamp;temperature;humidity
4279;DHT22;2153;47.744;10.580;2023-03-15T00:01:53;2.20;99.90
4279;DHT22;2153;47.744;10.580;2023-03-15T00:04:20;2.30;99.90
4279;DHT22;2153;47.744;10.580;2023-03-15T00:06:49;2.30;99.90
4279;DHT22;2153;47.744;10.580;2023-03-15T00:09:16;2.30;99.90
4279;DHT22;2153;47.744;10.580;2023-03-15T00:11:42;2.20;99.90
4279;DHT22;2153;47.744;10.580;2023-03-15T00:14:10;2.30;99.90
4279;DHT22;2153;47.744;10.580;2023-03-15T00:16:37;2.20;99.90
4279;DHT22;2153;47.744;10.580;2023-03-15T00:19:04;2.20;99.90
4279;DHT22;2153;47.744;10.580;2023-03-15T00:21:31;2.20;99.90
4279;DHT22;2153;47.744;10.580;2023-03-15T00:23:58;2.10;99.90
4279;DHT22;2153;47.744;10.580;2023-03-15T00:26:25;2.10;99.90
4279;DHT22;2153;47.744;10.580;2023-03-15T00:28:52;2.20;99.90
4279;DHT22;2153;47.744;10.580;2023-03-15T00:31:22;2.10;99.90
4279;DHT22;2153;47.744;10.580;2023-03-15T00:33:49;2.20;99.90
4279;DHT22;2153;47.744;10.580;2023-03-15T00:36:19;2.20;99.90
4279;DHT22;2153;47.744;10.580;2023-03-15T00:38:48;2.10;99.90
4279;DHT22;2153;47.744;10.580;2023-03-15T00:41:16;2.10;99.90
4279;DHT22;2153;47.744;10.580;2023-03-15T00:43:44;2.10;99.90
4279;DHT22;2153;47.744;10.580;2023-03-15T00:46:11;1.90;99.90
4279;DHT22;2153;47.744;10.580;2023-03-15T00:48:39;1.80;99.90
4279;DHT22;2153;47.744;10.580;2023-03-15T00:51:08;1.60;99.90
4279;DHT22;2153;47.744;10.580;2023-03-15T00:53:36;1.50;99.90
4279;DHT22;2153;47.744;10.580;2023-03-15T00:56:04;1.20;99.90
4279;DHT22;2153;47.744;10.580;2023-03-15T00:58:31;1.10;99.90
4279;DHT22;2153;47.744;10.580;2023-03-15T01:00:58;1.00;99.90
4279;DHT22;2153;47.744;10.580;2023-03-15T01:03:25;1.00;99.90
4279;DHT22;2153;47.744;10.580;2023-03-15T01:05:54;1.00;99.90
4279;DHT22;2153;47.744;10.580;2023-03-15T01:08:20;1.10;99.90
4279;DHT22;2153;47.744;10.580;2023-03-15T01:10:48;1.20;99.90
4279;DHT22;2153;47.744;10.580;2023-03-15T01:13:15;1.10;99.90
4279;DHT22;2153;47.744;10.580;2023-03-15T01:15:44;1.10;99.90
4279;DHT22;2153;47.744;10.580;2023-03-15T01:18:11;1.10;99.90
4279;DHT22;2153;47.744;10.580;2023-03-15T01:20:42;1.10;99.90
4279;DHT22;2153;47.744;10.580;2023-03-15T01:23:10;1.10;99.90
4279;DHT22;2153;47.744;10.580;2023-03-15T01:25:37;1.10;99.90
4279;DHT22;2153;47.744;10.580;2023-03-15T01:28:04;1.10;99.90
4279;DHT22;2153;47.744;10.580;2023-03-15T01:30:31;1.00;99.90
4279;DHT22;2153;47.744;10.580;2023-03-15T01:32:57;1.00;99.90
4279;DHT22;2153;47.744;10.580;2023-03-15T01:35:24;1.10;99.90
4279;DHT22;2153;47.744;10.580;2023-03-15T01:37:51;1.10;99.90
4279;DHT22;2153;47.744;10.580;2023-03-15T01:40:20;1.10;99.90
4279;DHT22;2153;47.744;10.580;2023-03-15T01:42:51;1.10;99.90
4279;DHT22;2153;47.744;10.580;2023-03-15T01:45:53;1.10;99.90
4279;DHT22;2153;47.744;10.580;2023-03-15T01:48:24;1.10;99.90
4279;DHT22;2153;47.744;10.580;2023-03-15T01:50:53;1.00;99.90
4279;DHT22;2153;47.744;10.580;2023-03-15T01:53:21;1.00;99.90
4279;DHT22;2153;47.744;10.580;2023-03-15T01:55:50;1.10;99.90
4279;DHT22;2153;47.744;10.580;2023-03-15T01:58:18;1.00;99.90
4279;DHT22;2153;47.744;10.580;2023-03-15T02:00:45;1.00;99.90
4279;DHT22;2153;47.744;10.580;2023-03-15T02:03:15;0.90;99.90
4279;DHT22;2153;47.744;10.580;2023-03-15T02:05:47;1.00;99.90
4279;DHT22;2153;47.744;10.580;2023-03-15T02:08:21;1.00;99.90
4279;DHT22;2153;47.744;10.580;2023-03-15T02:10:52;1.00;99.90
4279;DHT22;2153;47.744;10.580;2023-03-15T02:13:20;1.00;99.90
4279;DHT22;2153;47.744;10.580;2023-03-15T02:15:48;1.00;99.90
4279;DHT22;2153;47.744;10.580;2023-03-15T02:18:15;1.00;99.90
4279;DHT22;2153;47.744;10.580;2023-03-15T02:20:47;1.00;99.90
4279;DHT22;2153;47.744;10.580;2023-03-15T02:23:18;1.00;99.90
4279;DHT22;2153;47.744;10.580;2023-03-15T02:25:53;0.90;99.90
4279;DHT22;2153;47.744;10.580;2023-03-15T02:28:23;0.90;99.90
4279;DHT22;2153;47.744;10.580;2023-03-15T02:30:50;0.90;99.90
4279;DHT22;2153;47.744;10.580;2023-03-15T02:33:21;0.90;99.90
4279;DHT22;2153;47.744;10.580;2023-03-15T02:35:49;0.80;99.90
4279;DHT22;2153;47.744;10.580;2023-03-15T02:38:16;0.80;99.90
4279;DHT22;2153;47.744;10.580;2023-03-15T02:40:44;0.80;99.90
4279;DHT22;2153;47.744;10.580;2023-03-15T02:43:13;0.70;99.90
4279;DHT22;2153;47.744;10.580;2023-03-15T02:45:43;0.60;99.90
4279;DHT22;2153;47.744;10.580;2023-03-15T02:48:12;0.60;99.90
4279;DHT22;2153;47.744;10.580;2023-03-15T02:50:39;0.50;99.90
4279;DHT22;2153;47.744;10.580;2023-03-15T02:53:05;0.60;99.90
4279;DHT22;2153;47.744;10.580;2023-03-15T02:55:32;0.50;99.90
4279;DHT22;2153;47.744;10.580;2023-03-15T02:57:59;0.50;99.90
4279;DHT22;2153;47.744;10.580;2023-03-15T03:00:26;0.50;99.90
4279;DHT22;2153;47.744;10.580;2023-03-15T03:02:54;0.50;99.90
4279;DHT22;2153;47.744;10.580;2023-03-15T03:05:22;0.40;99.90
4279;DHT22;2153;47.744;10.580;2023-03-15T03:07:48;0.40;99.90
4279;DHT22;2153;47.744;10.580;2023-03-15T03:10:17;0.40;99.90
4279;DHT22;2153;47.744;10.580;2023-03-15T03:12:43;0.30;99.90
4279;DHT22;2153;47.744;10.580;2023-03-15T03:15:11;0.20;99.90
4279;DHT22;2153;47.744;10.580;2023-03-15T03:17:38;0.20;99.90
4279;DHT22;2153;47.744;10.580;2023-03-15T03:20:08;0.20;99.90
4279;DHT22;2153;47.744;10.580;2023-03-15T03:22:38;0.20;99.90
4279;DHT22;2153;47.744;10.580;2023-03-15T03:25:06;0.20;99.90
4279;DHT22;2153;47.744;10.580;2023-03-15T03:27:34;0.20;99.90
4279;DHT22;2153;47.744;10.580;2023-03-15T03:30:01;0.20;99.90
4279;DHT22;2153;47.744;10.580;2023-03-15T03:32:28;0.20;99.90
4279;DHT22;2153;47.744;10.580;2023-03-15T03:34:55;0.20;99.90
4279;DHT22;2153;47.744;10.580;2023-03-15T03:37:23;0.10;99.90
4279;DHT22;2153;47.744;10.580;2023-03-15T03:39:50;0.20;99.90
4279;DHT22;2153;47.744;10.580;2023-03-15T03:42:17;0.20;99.90
4279;DHT22;2153;47.744;10.580;2023-03-15T03:44:43;0.10;99.90
4279;DHT22;2153;47.744;10.580;2023-03-15T03:47:10;0.10;99.90
4279;DHT22;2153;47.744;10.580;2023-03-15T03:49:37;0.10;99.90
4279;DHT22;2153;47.744;10.580;2023-03-15T03:52:04;0.10;99.90
4279;DHT22;2153;47.744;10.580;2023-03-15T03:54:32;0.20;99.90
4279;DHT22;2153;47.744;10.580;2023-03-15T03:56:59;0.10;99.90
4279;DHT22;2153;47.744;10.580;2023-03-15T03:59:26;0.10;99.90
4279;DHT22;2153;47.744;10.580;2023-03-15T04:01:52;0.10;99.90
4279;DHT22;2153;47.744;10.580;2023-03-15T04:04:19;0.10;99.90
4279;DHT22;2153;47.744;10.580;2023-03-15T04:06:46;0.10;99.90
4279;DHT22;2153;47.744;10.580;2023-03-15T04:09:15;0.00;99.90
4279;DHT22;2153;47.744;10.580;2023-03-15T04:11:44;0.10;99.90
4279;DHT22;2153;47.744;10.580;2023-03-15T04:14:12;0.10;99.90
4279;DHT22;2153;47.744;10.580;2023-03-15T04:16:39;0.10;99.90
4279;DHT22;2153;47.744;10.580;2023-03-15T04:19:06;0.10;99.90
4279;DHT22;2153;47.744;10.580;2023-03-15T04:21:33;0.00;99.90
4279;DHT22;2153;47.744;10.580;2023-03-15T04:24:01;0.00;99.90
4279;DHT22;2153;47.744;10.580;2023-03-15T04:26:29;0.00;99.90
4279;DHT22;2153;47.744;10.580;2023-03-15T04:28:57;0.00;99.90
4279;DHT22;2153;47.744;10.580;2023-03-15T04:31:24;0.00;99.90
4279;DHT22;2153;47.744;10.580;2023-03-15T04:33:52;0.00;99.90
4279;DHT22;2153;47.744;10.580;2023-03-15T04:36:19;0.00;99.90
4279;DHT22;2153;47.744;10.580;2023-03-15T04:38:46;0.00;99.90
4279;DHT22;2153;47.744;10.580;2023-03-15T04:41:13;0.00;99.90
4279;DHT22;2153;47.744;10.580;2023-03-15T04:43:41;0.00;99.90
4279;DHT22;2153;47.744;10.580;2023-03-15T04:46:09;-0.10;99.90
4279;DHT22;2153;47.744;10.580;2023-03-15T04:48:36;-0.10;99.90
4279;DHT22;2153;47.744;10.580;2023-03-15T04:51:03;-0.10;99.90
4279;DHT22;2153;47.744;10.580;2023-03-15T04:53:30;0.00;99.90
4279;DHT22;2153;47.744;10.580;2023-03-15T04:55:56;0.00;99.90
4279;DHT22;2153;47.744;10.580;2023-03-15T04:58:23;0.00;99.90
4279;DHT22;2153;47.744;10.580;2023-03-15T05:00:51;0.00;99.90
4279;DHT22;2153;47.744;10.580;2023-03-15T05:03:19;0.00;99.90
4279;DHT22;2153;47.744;10.580;2023-03-15T05:05:46;-0.10;99.90
4279;DHT22;2153;47.744;10.580;2023-03-15T05:08:13;-0.10;99.90
4279;DHT22;2153;47.744;10.580;2023-03-15T05:10:40;-0.10;99.90
4279;DHT22;2153;47.744;10.580;2023-03-15T05:13:06;-0.10;99.90
4279;DHT22;2153;47.744;10.580;2023-03-15T05:15:33;0.00;99.90
4279;DHT22;2153;47.744;10.580;2023-03-15T05:18:00;0.00;99.90
4279;DHT22;2153;47.744;10.580;2023-03-15T05:20:28;0.00;99.90
4279;DHT22;2153;47.744;10.580;2023-03-15T05:22:55;0.00;99.90
4279;DHT22;2153;47.744;10.580;2023-03-15T05:25:21;0.00;99.90
4279;DHT22;2153;47.744;10.580;2023-03-15T05:27:48;0.00;99.90
4279;DHT22;2153;47.744;10.580;2023-03-15T05:30:15;0.00;99.90
4279;DHT22;2153;47.744;10.580;2023-03-15T05:32:42;0.00;99.90
4279;DHT22;2153;47.744;10.580;2023-03-15T05:35:10;0.00;99.90
4279;DHT22;2153;47.744;10.580;2023-03-15T05:37:38;-0.10;99.90
4279;DHT22;2153;47.744;10.580;2023-03-15T05:40:08;-0.10;99.90
4279;DHT22;2153;47.744;10.580;2023-03-15T05:42:36;-0.10;99.90
4279;DHT22;2153;47.744;10.580;2023-03-15T05:45:03;-0.10;99.90
4279;DHT22;2153;47.744;10.580;2023-03-15T05:47:30;-0.10;99.90
4279;DHT22;2153;47.744;10.580;2023-03-15T05:49:56;-0.10;99.90
4279;DHT22;2153;47.744;10.580;2023-03-15T05:52:23;-0.10;99.90
4279;DHT22;2153;47.744;10.580;2023-03-15T05:54:52;-0.10;99.90
4279;DHT22;2153;47.744;10.580;2023-03-15T05:57:19;0.00;99.90
4279;DHT22;2153;47.744;10.580;2023-03-15T05:59:45;-0.10;99.90
4279;DHT22;2153;47.744;10.580;2023-03-15T06:02:12;-0.10;99.90
4279;DHT22;2153;47.744;10.580;2023-03-15T06:04:39;-0.10;99.90
4279;DHT22;2153;47.744;10.580;2023-03-15T06:07:06;0.00;99.90
4279;DHT22;2153;47.744;10.580;2023-03-15T06:09:32;0.00;99.90
4279;DHT22;2153;47.744;10.580;2023-03-15T06:12:00;0.10;99.90
4279;DHT22;2153;47.744;10.580;2023-03-15T06:14:27;0.10;99.90
4279;DHT22;2153;47.744;10.580;2023-03-15T06:16:54;0.10;99.90
4279;DHT22;2153;47.744;10.580;2023-03-15T06:19:21;0.20;99.90
4279;DHT22;2153;47.744;10.580;2023-03-15T06:21:48;0.20;99.90
4279;DHT22;2153;47.744;10.580;2023-03-15T06:24:16;0.20;99.90
4279;DHT22;2153;47.744;10.580;2023-03-15T06:26:42;0.20;99.90
4279;DHT22;2153;47.744;10.580;2023-03-15T06:29:10;0.10;99.90
4279;DHT22;2153;47.744;10.580;2023-03-15T06:31:37;0.10;99.90
4279;DHT22;2153;47.744;10.580;2023-03-15T06:34:04;0.50;99.90
4279;DHT22;2153;47.744;10.580;2023-03-15T06:36:30;1.00;99.90
4279;DHT22;2153;47.744;10.580;2023-03-15T06:38:57;1.30;99.90
4279;DHT22;2153;47.744;10.580;2023-03-15T06:41:24;1.90;99.90
4279;DHT22;2153;47.744;10.580;2023-03-15T06:43:51;2.20;99.90
4279;DHT22;2153;47.744;10.580;2023-03-15T06:46:19;2.40;99.90
4279;DHT22;2153;47.744;10.580;2023-03-15T06:48:45;2.40;99.90
4279;DHT22;2153;47.744;10.580;2023-03-15T06:51:12;3.10;99.90
4279;DHT22;2153;47.744;10.580;2023-03-15T06:53:39;2.80;99.90
4279;DHT22;2153;47.744;10.580;2023-03-15T06:56:06;2.50;99.90
4279;DHT22;2153;47.744;10.580;2023-03-15T06:58:33;2.70;99.90
4279;DHT22;2153;47.744;10.580;2023-03-15T07:00:59;3.20;99.90
4279;DHT22;2153;47.744;10.580;2023-03-15T07:03:27;3.90;99.90
4279;DHT22;2153;47.744;10.580;2023-03-15T07:05:54;3.70;99.90
4279;DHT22;2153;47.744;10.580;2023-03-15T07:08:23;4.30;99.90
4279;DHT22;2153;47.744;10.580;2023-03-15T07:10:50;4.90;99.90
4279;DHT22;2153;47.744;10.580;2023-03-15T07:13:18;5.50;99.90
4279;DHT22;2153;47.744;10.580;2023-03-15T07:15:45;6.00;99.90
4279;DHT22;2153;47.744;10.580;2023-03-15T07:18:16;6.40;99.90
4279;DHT22;2153;47.744;10.580;2023-03-15T07:20:44;6.60;99.90
4279;DHT22;2153;47.744;10.580;2023-03-15T07:23:11;6.40;99.90
4279;DHT22;2153;47.744;10.580;2023-03-15T07:25:38;6.80;99.90
4279;DHT22;2153;47.744;10.580;2023-03-15T07:28:04;6.90;99.90
4279;DHT22;2153;47.744;10.580;2023-03-15T07:30:31;6.30;99.90
4279;DHT22;2153;47.744;10.580;2023-03-15T07:32:58;6.80;99.90
4279;DHT22;2153;47.744;10.580;2023-03-15T07:35:25;7.00;99.90
4279;DHT22;2153;47.744;10.580;2023-03-15T07:37:53;7.30;99.90
4279;DHT22;2153;47.744;10.580;2023-03-15T07:40:19;7.80;99.90
4279;DHT22;2153;47.744;10.580;2023-03-15T07:42:46;7.80;99.90
4279;DHT22;2153;47.744;10.580;2023-03-15T07:45:13;7.90;99.90
4279;DHT22;2153;47.744;10.580;2023-03-15T07:47:39;7.90;99.90
4279;DHT22;2153;47.744;10.580;2023-03-15T07:50:07;7.90;99.90
4279;DHT22;2153;47.744;10.580;2023-03-15T07:52:34;7.70;99.90
4279;DHT22;2153;47.744;10.580;2023-03-15T07:55:02;7.50;99.90
4279;DHT22;2153;47.744;10.580;2023-03-15T07:57:29;7.50;99.90
4279;DHT22;2153;47.744;10.580;2023-03-15T07:59:56;7.50;99.90
4279;DHT22;2153;47.744;10.580;2023-03-15T08:02:23;7.40;99.90
4279;DHT22;2153;47.744;10.580;2023-03-15T08:04:50;7.70;99.90
4279;DHT22;2153;47.744;10.580;2023-03-15T08:07:17;7.80;99.90
4279;DHT22;2153;47.744;10.580;2023-03-15T08:09:44;7.70;99.90
4279;DHT22;2153;47.744;10.580;2023-03-15T08:12:14;8.10;99.90
4279;DHT22;2153;47.744;10.580;2023-03-15T08:14:40;8.40;99.90
4279;DHT22;2153;47.744;10.580;2023-03-15T08:17:07;8.50;99.90
4279;DHT22;2153;47.744;10.580;2023-03-15T08:19:38;8.60;99.90
4279;DHT22;2153;47.744;10.580;2023-03-15T08:22:05;8.70;99.90
4279;DHT22;2153;47.744;10.580;2023-03-15T08:24:32;8.30;99.90
4279;DHT22;2153;47.744;10.580;2023-03-15T08:26:58;8.50;99.90
4279;DHT22;2153;47.744;10.580;2023-03-15T08:29:27;8.90;99.90
4279;DHT22;2153;47.744;10.580;2023-03-15T08:31:53;9.40;99.90
4279;DHT22;2153;47.744;10.580;2023-03-15T08:34:20;9.30;99.90
4279;DHT22;2153;47.744;10.580;2023-03-15T08:36:47;9.70;99.90
4279;DHT22;2153;47.744;10.580;2023-03-15T08:39:14;9.80;99.90
4279;DHT22;2153;47.744;10.580;2023-03-15T08:41:41;9.90;99.90
4279;DHT22;2153;47.744;10.580;2023-03-15T08:44:10;10.10;99.90
4279;DHT22;2153;47.744;10.580;2023-03-15T08:46:38;10.40;99.90
4279;DHT22;2153;47.744;10.580;2023-03-15T08:49:04;10.80;99.90
4279;DHT22;2153;47.744;10.580;2023-03-15T08:51:31;10.90;99.90
4279;DHT22;2153;47.744;10.580;2023-03-15T08:53:58;10.90;99.90
4279;DHT22;2153;47.744;10.580;2023-03-15T08:56:28;10.70;99.90
4279;DHT22;2153;47.744;10.580;2023-03-15T08:58:56;10.60;99.90
4279;DHT22;2153;47.744;10.580;2023-03-15T09:01:23;10.80;99.90
4279;DHT22;2153;47.744;10.580;2023-03-15T09:03:51;11.00;99.90
4279;DHT22;2153;47.744;10.580;2023-03-15T09:06:18;11.10;99.90
4279;DHT22;2153;47.744;10.580;2023-03-15T09:08:44;11.00;99.90
4279;DHT22;2153;47.744;10.580;2023-03-15T09:11:11;11.10;98.30
4279;DHT22;2153;47.744;10.580;2023-03-15T09:13:38;10.80;99.90
4279;DHT22;2153;47.744;10.580;2023-03-15T09:16:05;11.20;99.90
4279;DHT22;2153;47.744;10.580;2023-03-15T09:18:32;11.10;99.90
4279;DHT22;2153;47.744;10.580;2023-03-15T09:21:00;11.40;99.90
4279;DHT22;2153;47.744;10.580;2023-03-15T09:23:27;11.40;90.50
4279;DHT22;2153;47.744;10.580;2023-03-15T09:25:54;10.80;96.80
4279;DHT22;2153;47.744;10.580;2023-03-15T09:28:20;11.40;98.60
4279;DHT22;2153;47.744;10.580;2023-03-15T09:30:50;11.10;66.80
4279;DHT22;2153;47.744;10.580;2023-03-15T09:33:16;10.70;96.70
4279;DHT22;2153;47.744;10.580;2023-03-15T09:35:43;11.00;85.30
4279;DHT22;2153;47.744;10.580;2023-03-15T09:38:11;10.40;96.40
4279;DHT22;2153;47.744;10.580;2023-03-15T09:40:40;10.60;96.80
4279;DHT22;2153;47.744;10.580;2023-03-15T09:43:37;11.20;99.80
4279;DHT22;2153;47.744;10.580;2023-03-15T09:46:16;11.50;92.10
4279;DHT22;2153;47.744;10.580;2023-03-15T09:48:49;12.20;67.00
4279;DHT22;2153;47.744;10.580;2023-03-15T09:51:31;12.50;81.80
4279;DHT22;2153;47.744;10.580;2023-03-15T09:54:03;13.20;52.30
4279;DHT22;2153;47.744;10.580;2023-03-15T09:56:34;12.60;33.30
4279;DHT22;2153;47.744;10.580;2023-03-15T09:59:01;10.80;33.60
4279;DHT22;2153;47.744;10.580;2023-03-15T10:01:31;10.10;69.20
4279;DHT22;2153;47.744;10.580;2023-03-15T10:04:03;9.20;60.80
4279;DHT22;2153;47.744;10.580;2023-03-15T10:06:31;8.00;84.00
4279;DHT22;2153;47.744;10.580;2023-03-15T10:09:02;7.40;96.20
4279;DHT22;2153;47.744;10.580;2023-03-15T10:11:33;7.80;99.90
4279;DHT22;2153;47.744;10.580;2023-03-15T10:14:12;8.10;99.90
4279;DHT22;2153;47.744;10.580;2023-03-15T10:16:45;8.40;93.50
4279;DHT22;2153;47.744;10.580;2023-03-15T10:19:21;9.40;99.90
4279;DHT22;2153;47.744;10.580;2023-03-15T10:21:56;10.00;91.30
4279;DHT22;2153;47.744;10.580;2023-03-15T10:24:33;10.40;53.80
4279;DHT22;2153;47.744;10.580;2023-03-15T10:27:12;10.60;47.70
4279;DHT22;2153;47.744;10.580;2023-03-15T10:29:40;10.40;36.70
4279;DHT22;2153;47.744;10.580;2023-03-15T10:32:14;10.10;9.70
4279;DHT22;2153;47.744;10.580;2023-03-15T10:34:43;10.20;20.50
4279;DHT22;2153;47.744;10.580;2023-03-15T10:37:11;10.20;31.40
4279;DHT22;2153;47.744;10.580;2023-03-15T10:39:39;10.30;34.00
4279;DHT22;2153;47.744;10.580;2023-03-15T10:42:25;10.30;19.40
4279;DHT22;2153;47.744;10.580;2023-03-15T10:44:52;10.50;32.60
4279;DHT22;2153;47.744;10.580;2023-03-15T10:47:19;10.10;42.00
4279;DHT22;2153;47.744;10.580;2023-03-15T10:49:46;10.40;79.60
4279;DHT22;2153;47.744;10.580;2023-03-15T10:52:33;10.70;69.20
4279;DHT22;2153;47.744;10.580;2023-03-15T10:55:04;10.20;28.70
4279;DHT22;2153;47.744;10.580;2023-03-15T10:57:37;10.10;28.40
4279;DHT22;2153;47.744;10.580;2023-03-15T11:00:17;10.10;36.20
4279;DHT22;2153;47.744;10.580;2023-03-15T11:02:48;10.00;21.50
4279;DHT22;2153;47.744;10.580;2023-03-15T11:05:17;10.20;34.10
4279;DHT22;2153;47.744;10.580;2023-03-15T11:07:53;10.00;10.00
4279;DHT22;2153;47.744;10.580;2023-03-15T11:10:23;9.70;15.30
4279;DHT22;2153;47.744;10.580;2023-03-15T11:13:08;9.80;15.20
4279;DHT22;2153;47.744;10.580;2023-03-15T11:15:35;9.90;26.80
4279;DHT22;2153;47.744;10.580;2023-03-15T11:18:02;10.10;20.20
4279;DHT22;2153;47.744;10.580;2023-03-15T11:20:31;10.10;53.80
4279;DHT22;2153;47.744;10.580;2023-03-15T11:23:10;10.00;29.40
4279;DHT22;2153;47.744;10.580;2023-03-15T11:25:40;9.30;63.90
4279;DHT22;2153;47.744;10.580;2023-03-15T11:28:13;8.50;49.00
4279;DHT22;2153;47.744;10.580;2023-03-15T11:30:42;7.80;45.40
4279;DHT22;2153;47.744;10.580;2023-03-15T11:36:00;8.50;81.20
4279;DHT22;2153;47.744;10.580;2023-03-15T11:38:31;9.20;74.40
4279;DHT22;2153;47.744;10.580;2023-03-15T11:41:04;9.20;33.60
4279;DHT22;2153;47.744;10.580;2023-03-15T11:43:44;9.60;63.00
4279;DHT22;2153;47.744;10.580;2023-03-15T11:46:18;9.60;66.90
4279;DHT22;2153;47.744;10.580;2023-03-15T11:48:51;9.00;51.80
4279;DHT22;2153;47.744;10.580;2023-03-15T11:51:21;8.90;64.10
4279;DHT22;2153;47.744;10.580;2023-03-15T11:53:56;9.20;58.20
4279;DHT22;2153;47.744;10.580;2023-03-15T11:56:47;9.40;52.20
4279;DHT22;2153;47.744;10.580;2023-03-15T11:59:15;8.60;69.40
4279;DHT22;2153;47.744;10.580;2023-03-15T12:01:45;8.50;87.40
4279;DHT22;2153;47.744;10.580;2023-03-15T12:04:41;8.20;54.60
4279;DHT22;2153;47.744;10.580;2023-03-15T12:07:36;8.30;71.40
4279;DHT22;2153;47.744;10.580;2023-03-15T12:10:29;9.00;88.80
4279;DHT22;2153;47.744;10.580;2023-03-15T12:13:05;9.40;62.00
4279;DHT22;2153;47.744;10.580;2023-03-15T12:15:47;10.00;64.00
4279;DHT22;2153;47.744;10.580;2023-03-15T12:18:32;10.10;58.50
4279;DHT22;2153;47.744;10.580;2023-03-15T12:21:10;9.00;17.50
4279;DHT22;2153;47.744;10.580;2023-03-15T12:23:41;9.00;47.40
4279;DHT22;2153;47.744;10.580;2023-03-15T12:26:14;9.00;54.60
4279;DHT22;2153;47.744;10.580;2023-03-15T12:28:52;8.60;49.30
4279;DHT22;2153;47.744;10.580;2023-03-15T12:31:42;8.40;78.40
4279;DHT22;2153;47.744;10.580;2023-03-15T12:34:14;8.80;83.10
4279;DHT22;2153;47.744;10.580;2023-03-15T12:36:50;8.30;67.70
4279;DHT22;2153;47.744;10.580;2023-03-15T12:39:20;7.90;77.50
4279;DHT22;2153;47.744;10.580;2023-03-15T12:41:49;7.40;53.00
4279;DHT22;2153;47.744;10.580;2023-03-15T12:44:26;7.00;92.90
4279;DHT22;2153;47.744;10.580;2023-03-15T12:47:03;7.10;99.90
4279;DHT22;2153;47.744;10.580;2023-03-15T12:49:32;7.70;79.10
4279;DHT22;2153;47.744;10.580;2023-03-15T12:52:01;7.90;72.70
4279;DHT22;2153;47.744;10.580;2023-03-15T12:54:36;8.60;51.40
4279;DHT22;2153;47.744;10.580;2023-03-15T12:57:05;8.60;60.80
4279;DHT22;2153;47.744;10.580;2023-03-15T12:59:39;8.00;52.60
4279;DHT22;2153;47.744;10.580;2023-03-15T13:02:29;7.30;54.60
4279;DHT22;2153;47.744;10.580;2023-03-15T13:04:59;6.90;82.80
4279;DHT22;2153;47.744;10.580;2023-03-15T13:07:32;7.00;84.80
4279;DHT22;2153;47.744;10.580;2023-03-15T13:10:25;7.20;93.90
4279;DHT22;2153;47.744;10.580;2023-03-15T13:12:58;7.80;82.50
4279;DHT22;2153;47.744;10.580;2023-03-15T13:15:30;7.70;73.90
4279;DHT22;2153;47.744;10.580;2023-03-15T13:18:03;7.50;87.10
4279;DHT22;2153;47.744;10.580;2023-03-15T13:20:40;7.20;67.20
4279;DHT22;2153;47.744;10.580;2023-03-15T13:23:13;7.00;78.40
4279;DHT22;2153;47.744;10.580;2023-03-15T13:25:48;6.80;72.90
4279;DHT22;2153;47.744;10.580;2023-03-15T13:28:21;6.70;90.20
4279;DHT22;2153;47.744;10.580;2023-03-15T13:30:51;6.60;86.00
4279;DHT22;2153;47.744;10.580;2023-03-15T13:33:20;6.60;88.80
4279;DHT22;2153;47.744;10.580;2023-03-15T13:35:53;6.70;93.20
4279;DHT22;2153;47.744;10.580;2023-03-15T13:38:24;6.70;97.80
4279;DHT22;2153;47.744;10.580;2023-03-15T13:40:51;6.40;97.70
4279;DHT22;2153;47.744;10.580;2023-03-15T13:43:18;6.30;99.90
4279;DHT22;2153;47.744;10.580;2023-03-15T13:45:44;6.30;99.90
4279;DHT22;2153;47.744;10.580;2023-03-15T13:48:13;6.40;99.90
4279;DHT22;2153;47.744;10.580;2023-03-15T13:50:39;6.20;98.60
4279;DHT22;2153;47.744;10.580;2023-03-15T13:53:06;6.20;99.80
4279;DHT22;2153;47.744;10.580;2023-03-15T13:55:36;6.20;99.90
4279;DHT22;2153;47.744;10.580;2023-03-15T13:58:07;6.30;99.90
4279;DHT22;2153;47.744;10.580;2023-03-15T14:00:35;6.30;99.90
4279;DHT22;2153;47.744;10.580;2023-03-15T14:03:05;6.20;98.70
4279;DHT22;2153;47.744;10.580;2023-03-15T14:05:42;6.10;99.90
4279;DHT22;2153;47.744;10.580;2023-03-15T14:08:19;6.10;99.90
4279;DHT22;2153;47.744;10.580;2023-03-15T14:11:01;5.90;97.30
4279;DHT22;2153;47.744;10.580;2023-03-15T14:13:29;5.90;99.90
4279;DHT22;2153;47.744;10.580;2023-03-15T14:16:00;6.00;99.90
4279;DHT22;2153;47.744;10.580;2023-03-15T14:18:32;5.90;99.90
4279;DHT22;2153;47.744;10.580;2023-03-15T14:21:04;5.80;99.90
4279;DHT22;2153;47.744;10.580;2023-03-15T14:23:35;5.80;99.90
4279;DHT22;2153;47.744;10.580;2023-03-15T14:26:10;5.60;99.90
4279;DHT22;2153;47.744;10.580;2023-03-15T14:28:38;5.40;99.90
4279;DHT22;2153;47.744;10.580;2023-03-15T14:31:05;5.30;99.90
4279;DHT22;2153;47.744;10.580;2023-03-15T14:33:35;5.40;99.90
4279;DHT22;2153;47.744;10.580;2023-03-15T14:36:06;5.40;99.50
4279;DHT22;2153;47.744;10.580;2023-03-15T14:38:35;5.40;99.90
4279;DHT22;2153;47.744;10.580;2023-03-15T14:41:20;5.50;94.20
4279;DHT22;2153;47.744;10.580;2023-03-15T14:43:48;5.60;99.10
4279;DHT22;2153;47.744;10.580;2023-03-15T14:46:14;5.60;99.90
4279;DHT22;2153;47.744;10.580;2023-03-15T14:48:41;5.50;99.90
4279;DHT22;2153;47.744;10.580;2023-03-15T14:51:13;5.60;99.90
4279;DHT22;2153;47.744;10.580;2023-03-15T14:53:41;5.50;99.90
4279;DHT22;2153;47.744;10.580;2023-03-15T14:56:10;5.40;99.90
4279;DHT22;2153;47.744;10.580;2023-03-15T14:58:37;5.40;99.90
4279;DHT22;2153;47.744;10.580;2023-03-15T15:01:04;5.30;99.90
4279;DHT22;2153;47.744;10.580;2023-03-15T15:03:33;5.40;99.90
4279;DHT22;2153;47.744;10.580;2023-03-15T15:06:03;5.40;99.90
4279;DHT22;2153;47.744;10.580;2023-03-15T15:08:32;5.50;99.90
4279;DHT22;2153;47.744;10.580;2023-03-15T15:11:02;5.50;99.90
4279;DHT22;2153;47.744;10.580;2023-03-15T15:13:30;5.50;99.90
4279;DHT22;2153;47.744;10.580;2023-03-15T15:15:57;5.40;99.90
4279;DHT22;2153;47.744;10.580;2023-03-15T15:18:25;5.40;99.90
4279;DHT22;2153;47.744;10.580;2023-03-15T15:20:52;5.40;99.90
4279;DHT22;2153;47.744;10.580;2023-03-15T15:23:22;5.30;99.90
4279;DHT22;2153;47.744;10.580;2023-03-15T15:25:53;5.30;99.90
4279;DHT22;2153;47.744;10.580;2023-03-15T15:28:21;5.20;99.90
4279;DHT22;2153;47.744;10.580;2023-03-15T15:30:47;5.30;99.90
4279;DHT22;2153;47.744;10.580;2023-03-15T15:33:14;5.20;99.90
4279;DHT22;2153;47.744;10.580;2023-03-15T15:35:41;5.30;99.90
4279;DHT22;2153;47.744;10.580;2023-03-15T15:38:09;5.30;99.90
4279;DHT22;2153;47.744;10.580;2023-03-15T15:40:37;5.10;99.90
4279;DHT22;2153;47.744;10.580;2023-03-15T15:43:08;5.00;99.90
4279;DHT22;2153;47.744;10.580;2023-03-15T15:45:35;5.00;99.90
4279;DHT22;2153;47.744;10.580;2023-03-15T15:48:02;5.10;99.90
4279;DHT22;2153;47.744;10.580;2023-03-15T15:50:31;5.10;99.90
4279;DHT22;2153;47.744;10.580;2023-03-15T15:53:00;5.20;99.90
4279;DHT22;2153;47.744;10.580;2023-03-15T15:55:30;5.20;99.90
4279;DHT22;2153;47.744;10.580;2023-03-15T15:57:58;5.00;99.90
4279;DHT22;2153;47.744;10.580;2023-03-15T16:00:27;5.00;99.90
4279;DHT22;2153;47.744;10.580;2023-03-15T16:02:55;4.90;98.10
4279;DHT22;2153;47.744;10.580;2023-03-15T16:05:25;4.80;99.00
4279;DHT22;2153;47.744;10.580;2023-03-15T16:07:53;4.70;99.90
4279;DHT22;2153;47.744;10.580;2023-03-15T16:10:24;4.60;99.90
4279;DHT22;2153;47.744;10.580;2023-03-15T16:12:52;4.50;99.90
4279;DHT22;2153;47.744;10.580;2023-03-15T16:15:19;4.50;99.90
4279;DHT22;2153;47.744;10.580;2023-03-15T16:17:47;4.40;99.90